sensor_id;sensor_type;location;lat;lon;timestamp;temperature;humidity
5304;DHT22;2674;49.722;10.892;2023-02-04T00:01:58;5.90;99.90
5304;DHT22;2674;49.722;10.892;2023-02-04T00:04:25;5.90;99.90
5304;DHT22;2674;49.722;10.892;2023-02-04T00:06:52;6.00;99.90
5304;DHT22;2674;49.722;10.892;2023-02-04T00:09:18;6.00;99.90
5304;DHT22;2674;49.722;10.892;2023-02-04T00:11:43;5.90;99.90
5304;DHT22;2674;49.722;10.892;2023-02-04T00:14:10;5.90;99.90
5304;DHT22;2674;49.722;10.892;2023-02-04T00:16:36;5.90;99.90
5304;DHT22;2674;49.722;10.892;2023-02-04T00:19:01;5.90;99.90
5304;DHT22;2674;49.722;10.892;2023-02-04T00:21:27;5.80;99.90
5304;DHT22;2674;49.722;10.892;2023-02-04T00:23:53;5.80;99.90
5304;DHT22;2674;49.722;10.892;2023-02-04T00:26:20;5.80;99.90
5304;DHT22;2674;49.722;10.892;2023-02-04T00:28:45;5.80;99.90
5304;DHT22;2674;49.722;10.892;2023-02-04T00:31:11;5.80;99.90
5304;DHT22;2674;49.722;10.892;2023-02-04T00:33:37;5.80;99.90
5304;DHT22;2674;49.722;10.892;2023-02-04T00:36:03;5.80;99.90
5304;DHT22;2674;49.722;10.892;2023-02-04T00:38:29;5.70;99.90
5304;DHT22;2674;49.722;10.892;2023-02-04T00:40:55;5.70;99.90
5304;DHT22;2674;49.722;10.892;2023-02-04T00:43:20;5.70;99.90
5304;DHT22;2674;49.722;10.892;2023-02-04T00:45:46;5.70;99.90
5304;DHT22;2674;49.722;10.892;2023-02-04T00:48:12;5.60;99.90
5304;DHT22;2674;49.722;10.892;2023-02-04T00:50:38;5.60;99.90
5304;DHT22;2674;49.722;10.892;2023-02-04T00:53:05;5.60;99.90
5304;DHT22;2674;49.722;10.892;2023-02-04T00:55:31;5.70;99.90
5304;DHT22;2674;49.722;10.892;2023-02-04T00:57:56;5.70;99.90
5304;DHT22;2674;49.722;10.892;2023-02-04T01:00:22;5.70;99.90
5304;DHT22;2674;49.722;10.892;2023-02-04T01:02:48;5.70;99.90
5304;DHT22;2674;49.722;10.892;2023-02-04T01:05:17;5.60;99.90
5304;DHT22;2674;49.722;10.892;2023-02-04T01:07:43;5.60;99.90
5304;DHT22;2674;49.722;10.892;2023-02-04T01:10:09;5.60;99.90
5304;DHT22;2674;49.722;10.892;2023-02-04T01:12:35;5.60;99.90
5304;DHT22;2674;49.722;10.892;2023-02-04T01:15:00;5.50;99.90
5304;DHT22;2674;49.722;10.892;2023-02-04T01:17:26;5.50;99.90
5304;DHT22;2674;49.722;10.892;2023-02-04T01:19:52;5.50;99.90
5304;DHT22;2674;49.722;10.892;2023-02-04T01:22:18;5.50;99.90
5304;DHT22;2674;49.722;10.892;2023-02-04T01:24:44;5.60;99.90
5304;DHT22;2674;49.722;10.892;2023-02-04T01:27:09;5.50;99.90
5304;DHT22;2674;49.722;10.892;2023-02-04T01:29:35;5.60;99.90
5304;DHT22;2674;49.722;10.892;2023-02-04T01:32:01;5.60;99.90
5304;DHT22;2674;49.722;10.892;2023-02-04T01:34:27;5.60;99.90
5304;DHT22;2674;49.722;10.892;2023-02-04T01:36:56;5.60;99.90
5304;DHT22;2674;49.722;10.892;2023-02-04T01:39:21;5.70;99.90
5304;DHT22;2674;49.722;10.892;2023-02-04T01:41:47;5.60;98.70
5304;DHT22;2674;49.722;10.892;2023-02-04T01:44:13;5.60;99.90
5304;DHT22;2674;49.722;10.892;2023-02-04T01:46:39;5.60;99.90
5304;DHT22;2674;49.722;10.892;2023-02-04T01:49:05;5.60;98.90
5304;DHT22;2674;49.722;10.892;2023-02-04T01:51:31;5.60;99.90
5304;DHT22;2674;49.722;10.892;2023-02-04T01:53:58;5.60;96.70
5304;DHT22;2674;49.722;10.892;2023-02-04T01:56:26;5.60;93.30
5304;DHT22;2674;49.722;10.892;2023-02-04T01:58:53;5.50;94.00
5304;DHT22;2674;49.722;10.892;2023-02-04T02:01:44;5.60;77.70
5304;DHT22;2674;49.722;10.892;2023-02-04T02:04:15;5.60;84.10
5304;DHT22;2674;49.722;10.892;2023-02-04T02:06:48;5.70;77.80
5304;DHT22;2674;49.722;10.892;2023-02-04T02:09:15;5.50;76.90
5304;DHT22;2674;49.722;10.892;2023-02-04T02:11:41;5.60;71.10
5304;DHT22;2674;49.722;10.892;2023-02-04T02:14:07;5.60;66.60
5304;DHT22;2674;49.722;10.892;2023-02-04T02:16:33;5.50;68.60
5304;DHT22;2674;49.722;10.892;2023-02-04T02:18:58;5.50;71.60
5304;DHT22;2674;49.722;10.892;2023-02-04T02:21:56;5.50;73.00
5304;DHT22;2674;49.722;10.892;2023-02-04T02:24:24;5.40;77.40
5304;DHT22;2674;49.722;10.892;2023-02-04T02:26:52;5.40;77.90
5304;DHT22;2674;49.722;10.892;2023-02-04T02:29:18;5.40;79.80
5304;DHT22;2674;49.722;10.892;2023-02-04T02:31:44;5.40;82.90
5304;DHT22;2674;49.722;10.892;2023-02-04T02:34:10;5.40;83.90
5304;DHT22;2674;49.722;10.892;2023-02-04T02:36:35;5.40;89.00
5304;DHT22;2674;49.722;10.892;2023-02-04T02:39:02;5.40;90.00
5304;DHT22;2674;49.722;10.892;2023-02-04T02:41:27;5.40;92.00
5304;DHT22;2674;49.722;10.892;2023-02-04T02:43:53;5.30;94.80
5304;DHT22;2674;49.722;10.892;2023-02-04T02:46:19;5.30;96.40
5304;DHT22;2674;49.722;10.892;2023-02-04T02:48:48;5.30;93.00
5304;DHT22;2674;49.722;10.892;2023-02-04T02:51:14;5.20;95.60
5304;DHT22;2674;49.722;10.892;2023-02-04T02:53:40;5.20;94.50
5304;DHT22;2674;49.722;10.892;2023-02-04T02:56:05;5.20;94.50
5304;DHT22;2674;49.722;10.892;2023-02-04T02:58:34;5.20;95.40
5304;DHT22;2674;49.722;10.892;2023-02-04T03:01:05;5.10;95.90
5304;DHT22;2674;49.722;10.892;2023-02-04T03:03:34;5.10;98.70
5304;DHT22;2674;49.722;10.892;2023-02-04T03:06:13;5.00;99.90
5304;DHT22;2674;49.722;10.892;2023-02-04T03:08:40;5.00;99.90
5304;DHT22;2674;49.722;10.892;2023-02-04T03:11:08;5.00;99.90
5304;DHT22;2674;49.722;10.892;2023-02-04T03:13:34;4.60;99.90
5304;DHT22;2674;49.722;10.892;2023-02-04T03:16:02;4.90;99.90
5304;DHT22;2674;49.722;10.892;2023-02-04T03:18:29;4.90;99.90
5304;DHT22;2674;49.722;10.892;2023-02-04T03:20:55;4.90;99.80
5304;DHT22;2674;49.722;10.892;2023-02-04T03:23:23;4.70;99.90
5304;DHT22;2674;49.722;10.892;2023-02-04T03:25:50;4.90;99.90
5304;DHT22;2674;49.722;10.892;2023-02-04T03:28:16;5.00;99.90
5304;DHT22;2674;49.722;10.892;2023-02-04T03:30:42;4.90;99.90
5304;DHT22;2674;49.722;10.892;2023-02-04T03:33:08;4.90;99.90
5304;DHT22;2674;49.722;10.892;2023-02-04T03:35:34;4.90;99.90
5304;DHT22;2674;49.722;10.892;2023-02-04T03:37:59;4.90;99.90
5304;DHT22;2674;49.722;10.892;2023-02-04T03:40:25;4.80;99.90
5304;DHT22;2674;49.722;10.892;2023-02-04T03:42:51;4.80;99.90
5304;DHT22;2674;49.722;10.892;2023-02-04T03:45:17;4.80;99.90
5304;DHT22;2674;49.722;10.892;2023-02-04T03:47:43;4.80;99.90
5304;DHT22;2674;49.722;10.892;2023-02-04T03:50:09;4.70;99.90
5304;DHT22;2674;49.722;10.892;2023-02-04T03:52:36;4.70;99.90
5304;DHT22;2674;49.722;10.892;2023-02-04T03:55:02;4.70;99.90
5304;DHT22;2674;49.722;10.892;2023-02-04T03:57:28;4.70;99.90
5304;DHT22;2674;49.722;10.892;2023-02-04T03:59:54;4.60;99.90
5304;DHT22;2674;49.722;10.892;2023-02-04T04:02:20;4.60;99.90
5304;DHT22;2674;49.722;10.892;2023-02-04T04:04:45;4.50;99.90
5304;DHT22;2674;49.722;10.892;2023-02-04T04:07:11;4.50;99.90
5304;DHT22;2674;49.722;10.892;2023-02-04T04:09:37;4.40;99.90
5304;DHT22;2674;49.722;10.892;2023-02-04T04:12:03;4.40;99.90
5304;DHT22;2674;49.722;10.892;2023-02-04T04:14:29;4.40;99.90
5304;DHT22;2674;49.722;10.892;2023-02-04T04:16:55;4.30;99.90
5304;DHT22;2674;49.722;10.892;2023-02-04T04:19:20;4.30;99.90
5304;DHT22;2674;49.722;10.892;2023-02-04T04:21:46;4.30;99.90
5304;DHT22;2674;49.722;10.892;2023-02-04T04:24:12;4.30;99.90
5304;DHT22;2674;49.722;10.892;2023-02-04T04:26:38;4.40;99.90
5304;DHT22;2674;49.722;10.892;2023-02-04T04:29:04;4.40;99.90
5304;DHT22;2674;49.722;10.892;2023-02-04T04:31:29;4.40;99.90
5304;DHT22;2674;49.722;10.892;2023-02-04T04:33:55;4.50;99.90
5304;DHT22;2674;49.722;10.892;2023-02-04T04:36:21;4.50;99.90
5304;DHT22;2674;49.722;10.892;2023-02-04T04:38:47;4.50;99.90
5304;DHT22;2674;49.722;10.892;2023-02-04T04:41:12;4.50;99.90
5304;DHT22;2674;49.722;10.892;2023-02-04T04:43:38;4.50;99.90
5304;DHT22;2674;49.722;10.892;2023-02-04T04:46:04;4.50;99.90
5304;DHT22;2674;49.722;10.892;2023-02-04T04:48:30;4.50;99.90
5304;DHT22;2674;49.722;10.892;2023-02-04T04:50:55;4.40;99.90
5304;DHT22;2674;49.722;10.892;2023-02-04T04:53:22;4.50;99.90
5304;DHT22;2674;49.722;10.892;2023-02-04T04:55:48;4.50;99.90
5304;DHT22;2674;49.722;10.892;2023-02-04T04:58:14;4.40;99.90
5304;DHT22;2674;49.722;10.892;2023-02-04T05:00:40;4.50;99.90
5304;DHT22;2674;49.722;10.892;2023-02-04T05:03:06;4.40;99.90
5304;DHT22;2674;49.722;10.892;2023-02-04T05:05:32;4.40;99.90
5304;DHT22;2674;49.722;10.892;2023-02-04T05:07:58;4.40;99.90
5304;DHT22;2674;49.722;10.892;2023-02-04T05:10:24;4.40;99.90
5304;DHT22;2674;49.722;10.892;2023-02-04T05:12:50;4.40;99.90
5304;DHT22;2674;49.722;10.892;2023-02-04T05:15:15;4.40;99.90
5304;DHT22;2674;49.722;10.892;2023-02-04T05:17:41;4.40;99.90
5304;DHT22;2674;49.722;10.892;2023-02-04T05:20:08;4.40;99.90
5304;DHT22;2674;49.722;10.892;2023-02-04T05:22:34;4.40;99.90
5304;DHT22;2674;49.722;10.892;2023-02-04T05:24:59;4.40;99.90
5304;DHT22;2674;49.722;10.892;2023-02-04T05:27:25;4.30;99.90
5304;DHT22;2674;49.722;10.892;2023-02-04T05:29:51;4.30;99.90
5304;DHT22;2674;49.722;10.892;2023-02-04T05:32:17;4.30;99.90
5304;DHT22;2674;49.722;10.892;2023-02-04T05:34:42;4.20;99.90
5304;DHT22;2674;49.722;10.892;2023-02-04T05:37:08;4.20;99.90
5304;DHT22;2674;49.722;10.892;2023-02-04T05:39:34;4.10;99.90
5304;DHT22;2674;49.722;10.892;2023-02-04T05:42:00;4.10;99.90
5304;DHT22;2674;49.722;10.892;2023-02-04T05:44:25;4.10;99.90
5304;DHT22;2674;49.722;10.892;2023-02-04T05:46:51;4.00;99.90
5304;DHT22;2674;49.722;10.892;2023-02-04T05:49:17;3.90;99.90
5304;DHT22;2674;49.722;10.892;2023-02-04T05:51:43;3.90;99.90
5304;DHT22;2674;49.722;10.892;2023-02-04T05:54:09;3.90;99.90
5304;DHT22;2674;49.722;10.892;2023-02-04T05:56:34;3.90;99.90
5304;DHT22;2674;49.722;10.892;2023-02-04T05:59:00;3.80;99.90
5304;DHT22;2674;49.722;10.892;2023-02-04T06:01:26;3.80;99.90
5304;DHT22;2674;49.722;10.892;2023-02-04T06:03:51;3.70;99.90
5304;DHT22;2674;49.722;10.892;2023-02-04T06:06:17;3.70;99.90
5304;DHT22;2674;49.722;10.892;2023-02-04T06:08:43;3.60;99.90
5304;DHT22;2674;49.722;10.892;2023-02-04T06:11:09;3.60;99.90
5304;DHT22;2674;49.722;10.892;2023-02-04T06:13:35;3.60;99.90
5304;DHT22;2674;49.722;10.892;2023-02-04T06:16:01;3.70;99.90
5304;DHT22;2674;49.722;10.892;2023-02-04T06:18:27;3.60;99.90
5304;DHT22;2674;49.722;10.892;2023-02-04T06:20:53;3.50;99.90
5304;DHT22;2674;49.722;10.892;2023-02-04T06:23:18;3.30;99.90
5304;DHT22;2674;49.722;10.892;2023-02-04T06:25:44;3.10;99.90
5304;DHT22;2674;49.722;10.892;2023-02-04T06:28:16;2.90;99.90
5304;DHT22;2674;49.722;10.892;2023-02-04T06:30:41;2.80;99.90
5304;DHT22;2674;49.722;10.892;2023-02-04T06:33:08;2.80;99.90
5304;DHT22;2674;49.722;10.892;2023-02-04T06:35:34;2.80;99.90
5304;DHT22;2674;49.722;10.892;2023-02-04T06:38:00;2.70;99.90
5304;DHT22;2674;49.722;10.892;2023-02-04T06:40:26;2.70;99.90
5304;DHT22;2674;49.722;10.892;2023-02-04T06:42:51;2.60;99.90
5304;DHT22;2674;49.722;10.892;2023-02-04T06:45:17;2.60;99.90
5304;DHT22;2674;49.722;10.892;2023-02-04T06:47:43;2.60;99.90
5304;DHT22;2674;49.722;10.892;2023-02-04T06:50:09;2.60;99.90
5304;DHT22;2674;49.722;10.892;2023-02-04T06:52:35;2.60;99.90
5304;DHT22;2674;49.722;10.892;2023-02-04T06:55:01;2.60;99.90
5304;DHT22;2674;49.722;10.892;2023-02-04T06:57:27;2.70;99.90
5304;DHT22;2674;49.722;10.892;2023-02-04T06:59:53;2.60;99.90
5304;DHT22;2674;49.722;10.892;2023-02-04T07:02:19;2.60;99.90
5304;DHT22;2674;49.722;10.892;2023-02-04T07:04:44;2.60;99.90
5304;DHT22;2674;49.722;10.892;2023-02-04T07:07:11;2.60;99.90
5304;DHT22;2674;49.722;10.892;2023-02-04T07:09:37;2.50;99.90
5304;DHT22;2674;49.722;10.892;2023-02-04T07:12:05;2.50;99.90
5304;DHT22;2674;49.722;10.892;2023-02-04T07:14:31;2.40;99.90
5304;DHT22;2674;49.722;10.892;2023-02-04T07:16:56;2.40;99.90
5304;DHT22;2674;49.722;10.892;2023-02-04T07:19:23;2.30;99.90
5304;DHT22;2674;49.722;10.892;2023-02-04T07:21:49;2.30;99.90
5304;DHT22;2674;49.722;10.892;2023-02-04T07:24:19;2.30;99.90
5304;DHT22;2674;49.722;10.892;2023-02-04T07:26:44;2.30;99.90
5304;DHT22;2674;49.722;10.892;2023-02-04T07:29:10;2.30;99.90
5304;DHT22;2674;49.722;10.892;2023-02-04T07:31:36;2.30;99.90
5304;DHT22;2674;49.722;10.892;2023-02-04T07:34:01;2.30;99.90
5304;DHT22;2674;49.722;10.892;2023-02-04T07:36:27;2.30;99.90
5304;DHT22;2674;49.722;10.892;2023-02-04T07:38:53;2.30;99.90
5304;DHT22;2674;49.722;10.892;2023-02-04T07:41:19;2.30;99.90
5304;DHT22;2674;49.722;10.892;2023-02-04T07:43:45;2.30;99.90
5304;DHT22;2674;49.722;10.892;2023-02-04T07:46:11;2.40;99.90
5304;DHT22;2674;49.722;10.892;2023-02-04T07:48:38;2.40;99.90
5304;DHT22;2674;49.722;10.892;2023-02-04T07:51:04;2.50;99.90
5304;DHT22;2674;49.722;10.892;2023-02-04T07:53:30;2.60;99.90
5304;DHT22;2674;49.722;10.892;2023-02-04T07:55:55;2.60;99.90
5304;DHT22;2674;49.722;10.892;2023-02-04T07:58:21;2.70;99.90
5304;DHT22;2674;49.722;10.892;2023-02-04T08:00:47;2.70;99.90
5304;DHT22;2674;49.722;10.892;2023-02-04T08:03:13;2.70;99.90
5304;DHT22;2674;49.722;10.892;2023-02-04T08:05:39;2.70;99.90
5304;DHT22;2674;49.722;10.892;2023-02-04T08:08:06;2.70;99.90
5304;DHT22;2674;49.722;10.892;2023-02-04T08:10:32;2.80;99.90
5304;DHT22;2674;49.722;10.892;2023-02-04T08:12:57;2.90;99.90
5304;DHT22;2674;49.722;10.892;2023-02-04T08:15:24;3.00;99.90
5304;DHT22;2674;49.722;10.892;2023-02-04T08:17:50;3.10;99.90
5304;DHT22;2674;49.722;10.892;2023-02-04T08:20:16;3.20;99.90
5304;DHT22;2674;49.722;10.892;2023-02-04T08:22:43;3.30;99.90
5304;DHT22;2674;49.722;10.892;2023-02-04T08:25:10;3.30;99.90
5304;DHT22;2674;49.722;10.892;2023-02-04T08:27:36;3.50;99.90
5304;DHT22;2674;49.722;10.892;2023-02-04T08:30:03;3.50;99.90
5304;DHT22;2674;49.722;10.892;2023-02-04T08:32:29;3.60;99.90
5304;DHT22;2674;49.722;10.892;2023-02-04T08:34:56;3.60;99.90
5304;DHT22;2674;49.722;10.892;2023-02-04T08:37:22;3.50;99.90
5304;DHT22;2674;49.722;10.892;2023-02-04T08:39:48;3.50;99.90
5304;DHT22;2674;49.722;10.892;2023-02-04T08:42:15;3.50;99.90
5304;DHT22;2674;49.722;10.892;2023-02-04T08:44:41;3.50;99.90
5304;DHT22;2674;49.722;10.892;2023-02-04T08:47:07;3.50;99.90
5304;DHT22;2674;49.722;10.892;2023-02-04T08:49:33;3.40;99.90
5304;DHT22;2674;49.722;10.892;2023-02-04T08:51:59;3.50;99.90
5304;DHT22;2674;49.722;10.892;2023-02-04T08:54:26;3.50;99.90
5304;DHT22;2674;49.722;10.892;2023-02-04T08:56:52;3.60;99.90
5304;DHT22;2674;49.722;10.892;2023-02-04T08:59:18;3.70;99.90
5304;DHT22;2674;49.722;10.892;2023-02-04T09:01:46;3.70;99.90
5304;DHT22;2674;49.722;10.892;2023-02-04T09:04:17;3.70;99.90
5304;DHT22;2674;49.722;10.892;2023-02-04T09:06:44;3.60;99.90
5304;DHT22;2674;49.722;10.892;2023-02-04T09:09:09;3.60;99.90
5304;DHT22;2674;49.722;10.892;2023-02-04T09:11:35;3.60;99.90
5304;DHT22;2674;49.722;10.892;2023-02-04T09:14:01;3.60;99.90
5304;DHT22;2674;49.722;10.892;2023-02-04T09:16:27;3.60;99.90
5304;DHT22;2674;49.722;10.892;2023-02-04T09:18:53;3.60;99.90
5304;DHT22;2674;49.722;10.892;2023-02-04T09:21:19;3.60;99.90
5304;DHT22;2674;49.722;10.892;2023-02-04T09:23:45;3.60;99.90
5304;DHT22;2674;49.722;10.892;2023-02-04T09:26:12;3.70;99.90
5304;DHT22;2674;49.722;10.892;2023-02-04T09:28:37;3.70;99.90
5304;DHT22;2674;49.722;10.892;2023-02-04T09:31:03;3.80;99.90
5304;DHT22;2674;49.722;10.892;2023-02-04T09:33:32;3.80;92.90
5304;DHT22;2674;49.722;10.892;2023-02-04T09:35:58;3.80;90.90
5304;DHT22;2674;49.722;10.892;2023-02-04T09:38:24;3.80;99.70
5304;DHT22;2674;49.722;10.892;2023-02-04T09:40:56;3.80;93.70
5304;DHT22;2674;49.722;10.892;2023-02-04T09:43:25;3.90;99.90
5304;DHT22;2674;49.722;10.892;2023-02-04T09:45:53;4.00;96.40
5304;DHT22;2674;49.722;10.892;2023-02-04T09:48:18;4.00;65.30
5304;DHT22;2674;49.722;10.892;2023-02-04T09:50:46;3.90;85.40
5304;DHT22;2674;49.722;10.892;2023-02-04T09:53:14;3.90;74.50
5304;DHT22;2674;49.722;10.892;2023-02-04T09:55:43;3.80;71.50
5304;DHT22;2674;49.722;10.892;2023-02-04T09:58:15;3.70;58.20
5304;DHT22;2674;49.722;10.892;2023-02-04T10:01:13;3.70;67.80
5304;DHT22;2674;49.722;10.892;2023-02-04T10:03:40;3.70;56.50
5304;DHT22;2674;49.722;10.892;2023-02-04T10:06:18;3.70;47.90
5304;DHT22;2674;49.722;10.892;2023-02-04T10:08:48;3.80;39.50
5304;DHT22;2674;49.722;10.892;2023-02-04T10:11:16;3.80;35.80
5304;DHT22;2674;49.722;10.892;2023-02-04T10:13:49;3.90;32.10
5304;DHT22;2674;49.722;10.892;2023-02-04T10:16:24;4.00;25.00
5304;DHT22;2674;49.722;10.892;2023-02-04T10:19:02;4.10;22.10
5304;DHT22;2674;49.722;10.892;2023-02-04T10:21:30;4.10;19.10
5304;DHT22;2674;49.722;10.892;2023-02-04T10:24:04;4.10;17.00
5304;DHT22;2674;49.722;10.892;2023-02-04T10:26:32;4.10;8.70
5304;DHT22;2674;49.722;10.892;2023-02-04T10:31:31;4.20;5.20
5304;DHT22;2674;49.722;10.892;2023-02-04T10:36:36;4.60;3.30
5304;DHT22;2674;49.722;10.892;2023-02-04T10:39:04;4.70;1.70
5304;DHT22;2674;49.722;10.892;2023-02-04T10:41:31;4.70;1.00
5304;DHT22;2674;49.722;10.892;2023-02-04T10:44:05;4.70;1.00
5304;DHT22;2674;49.722;10.892;2023-02-04T10:46:31;4.70;1.00
5304;DHT22;2674;49.722;10.892;2023-02-04T10:48:58;4.50;1.00
5304;DHT22;2674;49.722;10.892;2023-02-04T10:51:24;4.40;1.00
5304;DHT22;2674;49.722;10.892;2023-02-04T10:53:50;4.30;1.00
5304;DHT22;2674;49.722;10.892;2023-02-04T10:56:34;4.30;1.00
5304;DHT22;2674;49.722;10.892;2023-02-04T10:59:00;4.20;1.00
5304;DHT22;2674;49.722;10.892;2023-02-04T11:01:27;4.10;1.00
5304;DHT22;2674;49.722;10.892;2023-02-04T11:03:54;4.10;1.00
5304;DHT22;2674;49.722;10.892;2023-02-04T11:06:23;4.10;1.00
5304;DHT22;2674;49.722;10.892;2023-02-04T11:08:49;4.20;1.00
5304;DHT22;2674;49.722;10.892;2023-02-04T11:11:26;4.30;1.00
5304;DHT22;2674;49.722;10.892;2023-02-04T11:18:58;4.50;1.00
5304;DHT22;2674;49.722;10.892;2023-02-04T11:26:46;4.60;1.00
5304;DHT22;2674;49.722;10.892;2023-02-04T11:31:43;4.60;1.00
5304;DHT22;2674;49.722;10.892;2023-02-04T11:34:24;4.60;1.00
5304;DHT22;2674;49.722;10.892;2023-02-04T11:39:37;4.40;1.00
5304;DHT22;2674;49.722;10.892;2023-02-04T11:42:09;4.40;1.00
5304;DHT22;2674;49.722;10.892;2023-02-04T11:44:39;4.40;1.00
5304;DHT22;2674;49.722;10.892;2023-02-04T11:47:07;4.40;1.00
5304;DHT22;2674;49.722;10.892;2023-02-04T11:49:35;4.30;1.00
5304;DHT22;2674;49.722;10.892;2023-02-04T11:52:12;4.30;1.00
5304;DHT22;2674;49.722;10.892;2023-02-04T11:54:38;4.30;1.20
5304;DHT22;2674;49.722;10.892;2023-02-04T11:57:05;4.40;1.00
5304;DHT22;2674;49.722;10.892;2023-02-04T11:59:31;4.50;1.80
5304;DHT22;2674;49.722;10.892;2023-02-04T12:04:56;4.30;1.00
5304;DHT22;2674;49.722;10.892;2023-02-04T12:07:27;4.40;1.00
5304;DHT22;2674;49.722;10.892;2023-02-04T12:09:53;4.40;1.00
5304;DHT22;2674;49.722;10.892;2023-02-04T12:12:24;4.30;2.10
5304;DHT22;2674;49.722;10.892;2023-02-04T12:15:03;4.30;2.50
5304;DHT22;2674;49.722;10.892;2023-02-04T12:17:29;4.30;2.00
5304;DHT22;2674;49.722;10.892;2023-02-04T12:19:55;4.30;4.90
5304;DHT22;2674;49.722;10.892;2023-02-04T12:22:21;4.40;7.20
5304;DHT22;2674;49.722;10.892;2023-02-04T12:24:47;4.50;7.20
5304;DHT22;2674;49.722;10.892;2023-02-04T12:27:13;4.50;8.00
5304;DHT22;2674;49.722;10.892;2023-02-04T12:29:39;4.60;6.50
5304;DHT22;2674;49.722;10.892;2023-02-04T12:32:05;4.80;5.00
5304;DHT22;2674;49.722;10.892;2023-02-04T12:34:30;4.90;3.70
5304;DHT22;2674;49.722;10.892;2023-02-04T12:36:56;4.90;3.20
5304;DHT22;2674;49.722;10.892;2023-02-04T12:39:22;4.90;1.40
5304;DHT22;2674;49.722;10.892;2023-02-04T12:41:48;4.80;1.10
5304;DHT22;2674;49.722;10.892;2023-02-04T12:44:14;4.90;1.10
5304;DHT22;2674;49.722;10.892;2023-02-04T12:46:41;4.90;1.70
5304;DHT22;2674;49.722;10.892;2023-02-04T12:49:07;4.90;1.00
5304;DHT22;2674;49.722;10.892;2023-02-04T12:51:34;4.90;1.00
5304;DHT22;2674;49.722;10.892;2023-02-04T12:54:00;4.90;1.00
5304;DHT22;2674;49.722;10.892;2023-02-04T12:56:25;4.80;1.00
5304;DHT22;2674;49.722;10.892;2023-02-04T12:58:51;4.60;1.00
5304;DHT22;2674;49.722;10.892;2023-02-04T13:01:17;4.50;1.00
5304;DHT22;2674;49.722;10.892;2023-02-04T13:03:43;4.40;1.00
5304;DHT22;2674;49.722;10.892;2023-02-04T13:06:09;4.40;1.00
5304;DHT22;2674;49.722;10.892;2023-02-04T13:08:35;4.40;1.00
5304;DHT22;2674;49.722;10.892;2023-02-04T13:11:01;4.40;1.00
5304;DHT22;2674;49.722;10.892;2023-02-04T13:13:27;4.30;1.00
5304;DHT22;2674;49.722;10.892;2023-02-04T13:15:53;4.30;1.00
5304;DHT22;2674;49.722;10.892;2023-02-04T13:18:19;4.30;2.50
5304;DHT22;2674;49.722;10.892;2023-02-04T13:20:45;4.40;1.80
5304;DHT22;2674;49.722;10.892;2023-02-04T13:23:11;4.40;1.00
5304;DHT22;2674;49.722;10.892;2023-02-04T13:25:36;4.30;1.00
5304;DHT22;2674;49.722;10.892;2023-02-04T13:28:02;4.30;1.00
5304;DHT22;2674;49.722;10.892;2023-02-04T13:30:28;4.40;1.00
5304;DHT22;2674;49.722;10.892;2023-02-04T13:32:54;4.40;1.00
5304;DHT22;2674;49.722;10.892;2023-02-04T13:35:20;4.40;1.00
5304;DHT22;2674;49.722;10.892;2023-02-04T13:37:46;4.40;1.00
5304;DHT22;2674;49.722;10.892;2023-02-04T13:40:12;4.40;1.00
5304;DHT22;2674;49.722;10.892;2023-02-04T13:42:37;4.50;1.00
5304;DHT22;2674;49.722;10.892;2023-02-04T13:45:04;4.60;1.00
5304;DHT22;2674;49.722;10.892;2023-02-04T13:47:32;4.50;1.00
5304;DHT22;2674;49.722;10.892;2023-02-04T13:49:58;4.50;1.00
5304;DHT22;2674;49.722;10.892;2023-02-04T13:52:23;4.50;1.00
5304;DHT22;2674;49.722;10.892;2023-02-04T13:54:49;4.50;1.00
5304;DHT22;2674;49.722;10.892;2023-02-04T13:57:15;4.60;1.00
5304;DHT22;2674;49.722;10.892;2023-02-04T13:59:42;4.60;1.00
5304;DHT22;2674;49.722;10.892;2023-02-04T14:02:08;4.50;1.00
5304;DHT22;2674;49.722;10.892;2023-02-04T14:04:34;4.50;1.00
5304;DHT22;2674;49.722;10.892;2023-02-04T14:07:00;4.40;1.00
5304;DHT22;2674;49.722;10.892;2023-02-04T14:09:26;4.40;1.00
5304;DHT22;2674;49.722;10.892;2023-02-04T14:11:52;4.40;1.00
5304;DHT22;2674;49.722;10.892;2023-02-04T14:14:17;4.30;1.00
5304;DHT22;2674;49.722;10.892;2023-02-04T14:16:43;4.40;1.00
5304;DHT22;2674;49.722;10.892;2023-02-04T14:19:09;4.40;1.00
5304;DHT22;2674;49.722;10.892;2023-02-04T14:21:35;4.40;1.00
5304;DHT22;2674;49.722;10.892;2023-02-04T14:24:01;4.40;1.00
5304;DHT22;2674;49.722;10.892;2023-02-04T14:26:26;4.40;1.00
5304;DHT22;2674;49.722;10.892;2023-02-04T14:28:52;4.50;1.00
5304;DHT22;2674;49.722;10.892;2023-02-04T14:31:18;4.50;1.00
5304;DHT22;2674;49.722;10.892;2023-02-04T14:33:44;4.50;1.00
5304;DHT22;2674;49.722;10.892;2023-02-04T14:36:10;4.50;1.00
5304;DHT22;2674;49.722;10.892;2023-02-04T14:38:35;4.50;1.00
5304;DHT22;2674;49.722;10.892;2023-02-04T14:41:03;4.40;1.00
5304;DHT22;2674;49.722;10.892;2023-02-04T14:43:29;4.30;1.00
5304;DHT22;2674;49.722;10.892;2023-02-04T14:46:04;4.20;1.00
5304;DHT22;2674;49.722;10.892;2023-02-04T14:48:30;4.20;1.00
5304;DHT22;2674;49.722;10.892;2023-02-04T14:50:56;4.10;1.00
5304;DHT22;2674;49.722;10.892;2023-02-04T14:53:22;4.10;1.00
5304;DHT22;2674;49.722;10.892;2023-02-04T14:55:47;4.00;1.00
5304;DHT22;2674;49.722;10.892;2023-02-04T14:58:16;4.00;1.00
5304;DHT22;2674;49.722;10.892;2023-02-04T15:00:42;4.00;1.00
5304;DHT22;2674;49.722;10.892;2023-02-04T15:03:08;3.90;1.00
5304;DHT22;2674;49.722;10.892;2023-02-04T15:05:34;3.90;1.00
5304;DHT22;2674;49.722;10.892;2023-02-04T15:08:00;3.90;1.00
5304;DHT22;2674;49.722;10.892;2023-02-04T15:10:26;3.90;1.00
5304;DHT22;2674;49.722;10.892;2023-02-04T15:12:51;3.90;1.00
5304;DHT22;2674;49.722;10.892;2023-02-04T15:15:20;3.90;1.00
5304;DHT22;2674;49.722;10.892;2023-02-04T15:17:45;3.80;1.00
5304;DHT22;2674;49.722;10.892;2023-02-04T15:20:11;3.80;1.00
5304;DHT22;2674;49.722;10.892;2023-02-04T15:22:38;3.80;1.00
5304;DHT22;2674;49.722;10.892;2023-02-04T15:25:04;3.70;1.00
5304;DHT22;2674;49.722;10.892;2023-02-04T15:27:30;3.70;1.00
5304;DHT22;2674;49.722;10.892;2023-02-04T15:29:56;3.60;1.00
5304;DHT22;2674;49.722;10.892;2023-02-04T15:32:22;3.60;1.00
5304;DHT22;2674;49.722;10.892;2023-02-04T15:34:47;3.50;1.00
5304;DHT22;2674;49.722;10.892;2023-02-04T15:37:13;3.40;1.00
5304;DHT22;2674;49.722;10.892;2023-02-04T15:39:39;3.40;1.00
5304;DHT22;2674;49.722;10.892;2023-02-04T15:42:05;3.40;1.00
5304;DHT22;2674;49.722;10.892;2023-02-04T15:44:31;3.20;1.00
5304;DHT22;2674;49.722;10.892;2023-02-04T15:46:57;3.20;1.00
5304;DHT22;2674;49.722;10.892;2023-02-04T15:49:23;3.10;2.70
5304;DHT22;2674;49.722;10.892;2023-02-04T15:51:48;3.00;2.00
5304;DHT22;2674;49.722;10.892;2023-02-04T15:54:14;2.90;6.40
5304;DHT22;2674;49.722;10.892;2023-02-04T15:56:40;2.80;4.20
5304;DHT22;2674;49.722;10.892;2023-02-04T15:59:06;2.70;4.00
5304;DHT22;2674;49.722;10.892;2023-02-04T16:01:32;2.70;4.40
5304;DHT22;2674;49.722;10.892;2023-02-04T16:03:57;2.50;4.20
5304;DHT22;2674;49.722;10.892;2023-02-04T16:06:24;2.50;9.30
5304;DHT22;2674;49.722;10.892;2023-02-04T16:08:51;2.40;9.20
5304;DHT22;2674;49.722;10.892;2023-02-04T16:11:17;2.40;7.80
5304;DHT22;2674;49.722;10.892;2023-02-04T16:13:43;2.40;7.70
5304;DHT22;2674;49.722;10.892;2023-02-04T16:16:09;2.30;12.70
5304;DHT22;2674;49.722;10.892;2023-02-04T16:18:35;2.20;9.00
5304;DHT22;2674;49.722;10.892;2023-02-04T16:21:01;2.20;12.90
5304;DHT22;2674;49.722;10.892;2023-02-04T16:23:26;2.10;16.00
5304;DHT22;2674;49.722;10.892;2023-02-04T16:25:52;2.00;18.60
5304;DHT22;2674;49.722;10.892;2023-02-04T16:28:18;2.00;22.70